createdAt,value
2019-04-30T00:03:28.177Z,22.70
2019-04-30T00:08:35.410Z,24.83
2019-04-30T00:13:35.860Z,22.23
2019-04-30T00:18:39.640Z,23.13
2019-04-30T00:23:42.365Z,25.77
2019-04-30T00:28:47.665Z,23.07
2019-04-30T00:33:52.607Z,25.73
2019-04-30T00:38:52.666Z,26.83
2019-04-30T00:43:55.229Z,26.30
2019-04-30T00:49:08.842Z,26.23
2019-04-30T00:54:01.591Z,27.87
2019-04-30T00:59:07.164Z,28.30
2019-04-30T01:04:09.958Z,29.02
2019-04-30T01:09:12.574Z,31.37
2019-04-30T01:14:15.220Z,31.80
2019-04-30T01:19:29.506Z,30.33
2019-04-30T01:24:23.551Z,30.78
2019-04-30T01:29:31.119Z,29.37
2019-04-30T01:34:30.978Z,30.03
2019-04-30T01:39:33.276Z,31.27
2019-04-30T01:44:35.561Z,33.05
2019-04-30T01:49:42.665Z,33.87
2019-04-30T01:54:41.872Z,32.87
2019-04-30T02:00:02.532Z,32.73
2019-04-30T02:05:06.065Z,35.53
2019-04-30T02:10:08.769Z,34.00
2019-04-30T02:15:11.227Z,34.73
2019-04-30T02:20:13.687Z,34.47
2019-04-30T02:25:15.987Z,34.27
2019-04-30T02:30:20.822Z,35.00
2019-04-30T02:35:30.015Z,33.37
2019-04-30T02:40:33.827Z,35.27
2019-04-30T02:45:36.668Z,33.87
2019-04-30T02:50:40.182Z,33.20
2019-04-30T02:55:43.463Z,33.27
2019-04-30T03:00:46.135Z,34.07
2019-04-30T03:05:49.741Z,33.30
2019-04-30T03:10:54.791Z,34.60
2019-04-30T03:15:59.243Z,35.00
2019-04-30T03:21:09.775Z,36.70
2019-04-30T03:26:12.986Z,38.47
2019-04-30T03:31:15.518Z,40.00
2019-04-30T03:36:21.757Z,39.00
2019-04-30T03:41:23.522Z,39.40
2019-04-30T03:46:25.809Z,38.37
2019-04-30T03:51:30.255Z,40.73
2019-04-30T03:56:32.077Z,41.37
2019-04-30T04:01:49.766Z,38.00
2019-04-30T04:06:56.795Z,41.40
2019-04-30T04:12:00.866Z,38.13
2019-04-30T04:17:03.234Z,39.87
2019-04-30T04:22:05.538Z,42.00
2019-04-30T04:27:09.661Z,45.10
2019-04-30T04:32:12.146Z,43.50
2019-04-30T04:37:14.517Z,40.80
2019-04-30T04:42:19.110Z,39.10
2019-04-30T04:47:20.826Z,38.33
2019-04-30T04:52:23.111Z,39.93
2019-04-30T04:57:25.395Z,41.63
2019-04-30T05:02:44.927Z,42.63
2019-04-30T05:07:48.607Z,39.27
2019-04-30T05:12:51.154Z,39.47
2019-04-30T05:17:53.561Z,38.83
2019-04-30T05:22:55.857Z,38.67
2019-04-30T05:27:58.728Z,38.97
2019-04-30T05:33:01.150Z,40.17
2019-04-30T05:38:03.711Z,38.57
2019-04-30T05:43:06.023Z,41.27
2019-04-30T05:48:08.861Z,37.97
2019-04-30T05:53:11.407Z,39.30
2019-04-30T05:58:13.789Z,36.73
2019-04-30T06:03:27.743Z,37.28
2019-04-30T06:08:21.797Z,36.07
2019-04-30T06:13:25.796Z,33.77
2019-04-30T06:18:28.692Z,34.30
2019-04-30T06:23:31.156Z,35.37
2019-04-30T06:28:33.530Z,33.17
2019-04-30T06:33:35.864Z,34.03
2019-04-30T06:38:38.662Z,34.80
2019-04-30T06:43:41.273Z,34.57
2019-04-30T06:48:46.427Z,33.10
2019-04-30T06:53:49.569Z,32.53
2019-04-30T06:58:52.695Z,31.96
2019-04-30T07:03:57.004Z,31.70
2019-04-30T07:09:17.559Z,32.73
2019-04-30T07:14:19.837Z,29.20
2019-04-30T07:19:31.738Z,30.27
2019-04-30T07:24:26.402Z,29.40
2019-04-30T07:29:29.541Z,29.93
2019-04-30T07:34:36.756Z,30.83
2019-04-30T07:39:36.107Z,30.88
2019-04-30T07:44:39.450Z,30.77
2019-04-30T07:49:49.894Z,30.03
2019-04-30T07:54:45.976Z,31.03
2019-04-30T07:59:49.938Z,26.47
2019-04-30T08:04:54.084Z,27.57
2019-04-30T08:09:58.854Z,28.53
2019-04-30T08:15:00.752Z,27.23
2019-04-30T08:20:03.701Z,28.43
2019-04-30T08:25:06.166Z,28.47
2019-04-30T08:30:20.733Z,29.47
2019-04-30T08:35:12.822Z,29.70
2019-04-30T08:40:20.862Z,31.10
2019-04-30T08:45:23.140Z,30.13
2019-04-30T08:50:25.506Z,29.73
2019-04-30T08:55:30.316Z,30.30
2019-04-30T09:00:32.001Z,26.70
2019-04-30T09:05:35.948Z,25.30
2019-04-30T09:10:39.335Z,26.40
2019-04-30T09:15:42.009Z,26.10
2019-04-30T09:20:44.300Z,25.23
2019-04-30T09:25:46.595Z,24.17
2019-04-30T09:30:48.887Z,24.37
2019-04-30T09:35:51.161Z,23.77
2019-04-30T09:40:53.516Z,23.25
2019-04-30T09:45:55.784Z,23.67
2019-04-30T09:51:00.357Z,23.43
2019-04-30T09:56:02.271Z,23.37
2019-04-30T10:01:04.713Z,23.75
2019-04-30T10:06:08.799Z,24.65
2019-04-30T10:11:28.418Z,22.80
2019-04-30T10:16:33.010Z,22.90
2019-04-30T10:21:35.282Z,21.42
2019-04-30T10:26:37.911Z,21.45
2019-04-30T10:31:40.469Z,21.85
2019-04-30T10:36:42.794Z,21.27
2019-04-30T10:41:45.451Z,20.77
2019-04-30T10:46:47.860Z,20.25
2019-04-30T10:51:50.291Z,20.45
2019-04-30T10:56:52.572Z,18.67
2019-04-30T11:01:54.920Z,18.70
2019-04-30T11:07:00.007Z,18.34
2019-04-30T11:12:03.035Z,15.48
2019-04-30T11:17:05.674Z,16.40
2019-04-30T11:22:08.323Z,16.97
2019-04-30T11:27:11.736Z,16.32
2019-04-30T11:32:16.307Z,16.42
2019-04-30T11:37:18.763Z,16.73
2019-04-30T11:42:21.056Z,17.45
2019-04-30T11:47:24.003Z,16.95
2019-04-30T11:52:26.295Z,17.02
2019-04-30T11:57:29.804Z,16.37
2019-04-30T12:02:36.727Z,16.18
2019-04-30T12:07:48.324Z,15.40
2019-04-30T12:12:50.757Z,14.70
2019-04-30T12:17:53.063Z,16.07
2019-04-30T12:22:55.316Z,16.17
2019-04-30T12:27:59.537Z,15.30
2019-04-30T12:33:01.712Z,15.78
2019-04-30T12:38:04.079Z,16.25
2019-04-30T12:43:06.516Z,17.23
2019-04-30T12:48:13.475Z,16.73
2019-04-30T12:53:20.205Z,16.35
2019-04-30T13:03:24.126Z,17.05
2019-04-30T13:08:26.952Z,15.43
2019-04-30T13:13:32.221Z,14.85
2019-04-30T13:18:33.636Z,15.93
2019-04-30T13:23:35.936Z,16.30
2019-04-30T13:28:56.455Z,16.02
2019-04-30T13:34:18.511Z,14.38
2019-04-30T13:39:22.351Z,15.50
2019-04-30T13:44:26.352Z,15.95
2019-04-30T13:49:30.227Z,15.18
2019-04-30T13:54:32.770Z,14.83
2019-04-30T13:59:35.054Z,13.78
2019-04-30T14:04:41.876Z,13.70
2019-04-30T14:09:44.501Z,13.53
2019-04-30T14:14:46.900Z,10.78
2019-04-30T14:19:49.186Z,12.13
2019-04-30T14:24:53.103Z,11.63
2019-04-30T14:29:55.422Z,10.88
2019-04-30T14:34:58.833Z,11.28
2019-04-30T14:40:01.989Z,12.15
2019-04-30T14:45:11.450Z,11.97
2019-04-30T14:50:15.882Z,11.30
2019-04-30T14:55:22.831Z,10.40
2019-04-30T15:00:31.924Z,11.55
2019-04-30T15:05:40.583Z,12.58
2019-04-30T15:10:37.782Z,11.57
2019-04-30T15:15:40.066Z,11.55
2019-04-30T15:20:42.414Z,9.85
2019-04-30T15:25:44.716Z,10.50
2019-04-30T15:30:48.701Z,11.30
2019-04-30T15:35:52.918Z,10.82
2019-04-30T15:40:55.272Z,10.48
2019-04-30T15:45:57.647Z,10.32
2019-04-30T15:51:00.087Z,10.32
2019-04-30T15:56:02.378Z,9.90
2019-04-30T16:01:06.312Z,9.50
2019-04-30T16:06:10.408Z,9.33
2019-04-30T16:11:30.711Z,9.08
2019-04-30T16:16:35.356Z,10.30
2019-04-30T16:21:37.690Z,9.38
2019-04-30T16:26:49.046Z,10.15
2019-04-30T16:31:44.137Z,9.25
2019-04-30T16:36:46.401Z,9.73
2019-04-30T16:41:49.643Z,9.03
2019-04-30T16:46:52.324Z,9.03
2019-04-30T16:51:54.670Z,8.65
2019-04-30T16:57:04.216Z,8.65
2019-04-30T17:02:01.257Z,7.97
2019-04-30T17:07:18.773Z,8.25
2019-04-30T17:12:22.805Z,8.80
2019-04-30T17:17:25.092Z,8.68
2019-04-30T17:22:29.234Z,8.23
2019-04-30T17:27:31.575Z,8.00
2019-04-30T17:32:34.112Z,7.80
2019-04-30T17:37:36.581Z,7.62
2019-04-30T17:42:38.951Z,7.90
2019-04-30T17:47:41.222Z,7.10
2019-04-30T17:52:43.496Z,6.70
2019-04-30T17:57:45.813Z,6.80
2019-04-30T18:02:48.177Z,8.55
2019-04-30T18:07:50.559Z,10.95
2019-04-30T18:12:53.316Z,10.35
2019-04-30T18:17:58.145Z,7.35
2019-04-30T18:23:02.767Z,6.15
2019-04-30T18:28:09.021Z,7.03
2019-04-30T18:33:12.105Z,5.87
2019-04-30T18:38:14.440Z,5.78
2019-04-30T18:43:20.394Z,6.37
2019-04-30T18:48:21.771Z,5.78
2019-04-30T18:53:25.754Z,7.45
2019-04-30T18:58:39.297Z,7.55
2019-04-30T19:03:32.555Z,7.42
2019-04-30T19:08:52.061Z,9.90
2019-04-30T19:13:59.283Z,7.30
2019-04-30T19:19:16.057Z,6.83
2019-04-30T19:24:19.688Z,6.93
2019-04-30T19:29:22.802Z,7.07
2019-04-30T19:34:28.654Z,7.20
2019-04-30T19:39:32.554Z,6.80
2019-04-30T19:44:35.114Z,7.00
2019-04-30T19:49:38.966Z,7.27
2019-04-30T19:54:42.088Z,7.10
2019-04-30T19:59:44.466Z,7.40
2019-04-30T20:04:46.947Z,8.10
2019-04-30T20:10:00.172Z,8.97
2019-04-30T20:14:53.590Z,11.73
2019-04-30T20:19:56.019Z,15.17
2019-04-30T20:24:59.274Z,13.25
2019-04-30T20:30:01.895Z,11.03
2019-04-30T20:35:06.994Z,12.30
2019-04-30T20:40:11.031Z,12.17
2019-04-30T20:45:13.614Z,12.27
2019-04-30T20:50:16.246Z,12.20
2019-04-30T20:55:18.600Z,12.23
2019-04-30T21:00:20.987Z,12.43
2019-04-30T21:05:23.386Z,12.67
2019-04-30T21:10:25.818Z,11.17
2019-04-30T21:15:29.755Z,12.50
2019-04-30T21:20:32.370Z,13.97
2019-04-30T21:25:34.687Z,14.60
2019-04-30T21:30:37.101Z,12.63
2019-04-30T21:35:58.623Z,11.50
2019-04-30T21:41:01.299Z,16.60
2019-04-30T21:46:03.849Z,15.47
2019-04-30T21:51:06.197Z,16.00
2019-04-30T21:56:08.562Z,14.87
2019-04-30T22:01:13.839Z,18.23
2019-04-30T22:06:16.302Z,13.93
2019-04-30T22:11:19.771Z,14.30
2019-04-30T22:16:22.326Z,15.70
2019-04-30T22:21:24.626Z,16.97
2019-04-30T22:26:26.902Z,17.17
2019-04-30T22:31:29.727Z,16.83
2019-04-30T22:36:33.794Z,16.43
2019-04-30T22:41:36.211Z,15.53
2019-04-30T22:46:39.403Z,18.83
2019-04-30T22:51:41.893Z,16.53
2019-04-30T22:56:44.184Z,15.50
2019-04-30T23:01:57.436Z,14.33
2019-04-30T23:06:59.714Z,14.93
2019-04-30T23:12:02.788Z,14.97
2019-04-30T23:17:05.344Z,16.83
2019-04-30T23:22:07.659Z,16.07
2019-04-30T23:27:09.953Z,15.93
2019-04-30T23:32:13.662Z,14.90
2019-04-30T23:37:16.105Z,15.60
2019-04-30T23:42:18.439Z,14.38
2019-04-30T23:47:20.786Z,14.83
2019-04-30T23:52:23.073Z,14.70
2019-04-30T23:57:25.389Z,14.83
